»·PEaware :: N172GW KTCY-O22

N172GW :: KTCY-O22

FLIGHT INFORMATION

Flight Status: Arrived
Operator: Privately registered:
United States
More flights under this callsign
Pilot: Glenn W. (21096)
Aircraft: CESSNA 172 SKYHAWK
(C172)
More flights by this aircraft type
Origin: KTCY Tracy Mun
United States
Destination: O22 Columbia
United States
More flights between these airports :: More routes between these airports
Route: MOD HOFED
File this flight plan on PilotEdge
Remarks:
Altitude:
(Current/Filed)
5,000ft
Speed:
(Current/Filed)
110kts
Departed: 30-Jan-19 01:43 PM
Arrived: 30-Jan-19 02:22 PM
Distance/Time
Traveled:
53nm/0:38
Distance/Time
To Go:
Arrived

Flight Plot

Page will automatically refresh every two minutes.

Flight plan parsing failed; only flown route is shown


Map Options




Map Legend


Flown Route
Filed Route
Departure Airport
Arrival Airport
Navaid (VOR, NDB)
Fix

Horizontal Profiles

Position Reports

Time Latitude Longitude Heading Altitude Ground
Speed
30-Jan-19 13:29 37.688352 -121.438227 314 181ft 0kts
30-Jan-19 13:30 37.688352 -121.438227 314 181ft 0kts
30-Jan-19 13:31 37.688352 -121.438227 314 181ft 0kts
30-Jan-19 13:32 37.688352 -121.438227 314 181ft 0kts
30-Jan-19 13:33 37.688352 -121.438227 314 181ft 0kts
30-Jan-19 13:34 37.688352 -121.438227 314 181ft 0kts
30-Jan-19 13:35 37.688352 -121.438227 314 181ft 0kts
30-Jan-19 13:36 37.688352 -121.438227 314 181ft 0kts
30-Jan-19 13:37 37.688357 -121.438378 226 181ft 0kts
30-Jan-19 13:38 37.686858 -121.438781 142 187ft 8kts
30-Jan-19 13:39 37.684494 -121.435482 150 189ft 0kts
30-Jan-19 13:40 37.684494 -121.435482 149 188ft 0kts
30-Jan-19 13:41 37.684080 -121.435854 272 189ft 6kts
30-Jan-19 13:42 37.690276 -121.444793 314 459ft 80kts
30-Jan-19 13:43 37.705228 -121.442270 114 1443ft 89kts
30-Jan-19 13:44 37.684222 -121.432238 154 2481ft 83kts
30-Jan-19 13:45 37.673814 -121.408252 95 3424ft 83kts
30-Jan-19 13:46 37.672655 -121.378850 85 4293ft 85kts
30-Jan-19 13:47 37.676693 -121.349260 75 5025ft 96kts
30-Jan-19 13:48 37.680566 -121.310414 98 5005ft 116kts
30-Jan-19 13:49 37.673310 -121.270330 106 5050ft 117kts
30-Jan-19 13:50 37.665854 -121.230308 100 5077ft 117kts
30-Jan-19 13:51 37.659652 -121.189828 98 5038ft 117kts
30-Jan-19 13:52 37.654802 -121.149242 94 4993ft 117kts
30-Jan-19 13:53 37.649094 -121.109234 102 4994ft 116kts
30-Jan-19 13:54 37.643225 -121.070785 101 5068ft 111kts
30-Jan-19 13:55 37.637658 -121.032532 100 5093ft 112kts
30-Jan-19 13:56 37.633061 -120.994136 96 5127ft 112kts
30-Jan-19 13:57 37.629548 -120.953895 83 5022ft 116kts
30-Jan-19 13:58 37.638611 -120.915282 65 4987ft 115kts
30-Jan-19 13:59 37.649650 -120.877610 72 4967ft 114kts
30-Jan-19 14:00 37.660813 -120.840190 57 4956ft 114kts
30-Jan-19 14:01 37.672306 -120.803468 68 5019ft 109kts
30-Jan-19 14:02 37.683272 -120.767446 70 5085ft 110kts
30-Jan-19 14:03 37.693505 -120.730520 70 5093ft 112kts
30-Jan-19 14:04 37.704632 -120.693372 67 5093ft 113kts
30-Jan-19 14:05 37.715333 -120.656111 69 5097ft 113kts
30-Jan-19 14:06 37.725779 -120.618592 67 5101ft 113kts
30-Jan-19 14:07 37.736303 -120.581056 70 5102ft 113kts
30-Jan-19 14:08 37.746889 -120.543620 69 5104ft 112kts
30-Jan-19 14:09 37.757325 -120.506010 70 5100ft 113kts
30-Jan-19 14:10 37.767504 -120.468481 69 5103ft 113kts
30-Jan-19 14:11 37.790356 -120.448296 357 4971ft 111kts
30-Jan-19 14:12 37.822508 -120.450115 359 4642ft 116kts
30-Jan-19 14:13 37.854933 -120.452383 357 4438ft 116kts
30-Jan-19 14:14 37.886885 -120.443929 14 4030ft 117kts
30-Jan-19 14:15 37.918306 -120.436416 7 3403ft 103kts
30-Jan-19 14:16 37.944270 -120.432216 2 3396ft 91kts
30-Jan-19 14:17 37.971386 -120.426159 5 3136ft 111kts
30-Jan-19 14:18 37.993968 -120.421391 15 2942ft 67kts
30-Jan-19 14:19 38.011711 -120.417235 12 2322ft 61kts
30-Jan-19 14:20 38.027746 -120.413668 13 2087ft 43kts
30-Jan-19 14:21 38.030289 -120.412553 100 2095ft 0kts
30-Jan-19 14:22 38.029061 -120.412153 183 2090ft 5kts
30-Jan-19 14:23 38.028948 -120.412172 187 2090ft 0kts
30-Jan-19 14:24 38.028948 -120.412172 187 2090ft 0kts
30-Jan-19 14:25 38.028948 -120.412172 187 2090ft 0kts

Navigation Log

Ident Type
Flight plan parsing failed, navigation log unavailable